Accueil
METAR-TAF:

METAR-TAF

Aéroports :

Avignon, France

Aéroport d'Avignon-Provence

latitude: 43-54-26N, longitude: 004-54-07E, altitude: 38 m

Observation

Le bulletin a été fait il y a 33 minutes, à 04:30 UTC
Vent 15 kt de nord
Température 6°C
Humidité 70%
Pression 1020 hPa
Visibilité 10 km ou plus
pas de nuages en-dessous de 1500 mètres et pas de cumulonimbus.

METAR: LFMV 180430Z AUTO 35015KT CAVOK 06/01 Q1020 TEMPO 35022G37KT

Heure: 06:03 (05:03 UTC)

Prévision

Le bulletin a été fait il y a 3 heures et 3 minutes, à 02:00 UTC
Prévision valable du 18 à 03 UTC au 19 à 03 UTC
Vent 22 kt de nord
Visibilité 10 km ou plus
pas de nuages en-dessous de 1500 mètres et pas de cumulonimbus.
Temporairement
du 18 à 03 UTC au 18 à 20 UTC
Vent 22 kt de nord avec des rafales jusqu'à 37 kt
Evoluant progressivement
du 18 à 21 UTC au 18 à 23 UTC
Vent 12 kt de nord

TAF: LFMV 180200Z 1803/1903 35022KT CAVOK TEMPO 1803/1820 35022G37KT BECMG 1821/1823 35012KT

Observations et prévisions météorologiques de plus de 4000 aéroports (messages METAR et TAF).

Les stations disponibles sont représentées par des disques jaunes et rouges sur la carte.

Passer la souris dessus pour voir le nom de la station.

Cliquer dessus pour voir les observations et prévisions météorologiques.

Pour changer de carte: cliquez sur les boutons verts avec une croix noire pour zoomer, sur le bouton vert avec un tiret pour effectuer un zoom arrière, ou sur les flèches vertes pour les cartes adjacentes.


METAR-TAF: